Time;durP1;ratioP1;P1;durP2;ratioP2;P2;SDS_P1;SDS_P2;PMS_P1;PMS_P2;Temp;Humidity;BMP_temperature;BMP_pressure;BME280_temperature;BME280_humidity;BME280_pressure;Samples;Min_cycle;Max_cycle;Signal;HPM_P1;HPM_P2
2022/09/13 00:00:51;;;;;;;60.37;5.87;;;;;;;21.59;100.00;100333.97;6132235;23;20393;-93
2022/09/13 00:03:20;;;;;;;51.00;6.90;;;;;;;21.60;100.00;100330.09;6155860;23;20390;-92
2022/09/13 00:06:28;;;;;;;63.93;7.60;;;;;;;21.60;100.00;100338.44;6131094;23;20417;-92
2022/09/13 00:12:36;;;;;;;55.27;6.97;;;;;;;21.54;100.00;100328.44;6157538;23;20389;-93
2022/09/13 00:15:04;;;;;;;57.93;7.23;;;;;;;21.54;100.00;100334.00;6107976;23;20521;-96
2022/09/13 00:17:38;;;;;;;42.70;6.67;;;;;;;21.52;100.00;100327.88;6107020;23;20410;-91
2022/09/13 00:20:25;;;;;;;40.63;7.50;;;;;;;21.52;100.00;100328.72;6107432;23;20472;-92
2022/09/13 00:22:59;;;;;;;43.03;6.57;;;;;;;21.43;100.00;100318.41;6131386;23;20798;-95
2022/09/13 00:25:35;;;;;;;46.23;6.63;;;;;;;21.41;100.00;100318.66;6107605;23;20416;-94
2022/09/13 00:28:09;;;;;;;44.67;7.00;;;;;;;21.45;100.00;100316.19;6107356;23;20450;-94
2022/09/13 00:34:16;;;;;;;39.67;5.17;;;;;;;21.46;100.00;100317.84;6158096;23;20386;-92
2022/09/13 00:37:13;;;;;;;60.73;7.87;;;;;;;21.46;100.00;100317.84;6156417;23;20476;-92
2022/09/13 00:39:41;;;;;;;43.53;5.60;;;;;;;21.39;100.00;100307.00;6132792;23;20386;-94
2022/09/13 00:42:26;;;;;;;44.03;5.77;;;;;;;21.45;100.00;100321.75;6110607;23;20416;-93
2022/09/13 00:45:22;;;;;;;37.50;6.43;;;;;;;21.49;100.00;100328.44;6108829;23;20420;-94
2022/09/13 00:48:18;;;;;;;51.03;7.20;;;;;;;21.50;100.00;100335.66;6156486;23;20382;-94
2022/09/13 00:50:52;;;;;;;42.40;7.40;;;;;;;21.50;100.00;100318.97;6132774;23;20469;-95
2022/09/13 00:53:34;;;;;;;30.33;6.03;;;;;;;21.45;100.00;100321.75;6110248;23;20444;-93
2022/09/13 01:00:12;;;;;;;29.73;5.13;;;;;;;21.42;100.00;100325.06;6158767;23;20409;-93
2022/09/13 01:03:26;;;;;;;29.77;5.70;;;;;;;21.38;100.00;100317.28;6156850;23;20412;-92
2022/09/13 01:06:23;;;;;;;36.00;7.37;;;;;;;21.37;100.00;100315.59;6157182;23;20401;-92
2022/09/13 01:09:03;;;;;;;32.60;5.30;;;;;;;21.37;100.00;100307.25;6156975;23;20437;-92
2022/09/13 01:11:54;;;;;;;33.33;5.23;;;;;;;21.38;100.00;100308.94;6132854;23;20503;-92
2022/09/13 01:14:42;;;;;;;42.70;5.80;;;;;;;21.40;100.00;100299.47;6133123;23;20409;-92
2022/09/13 01:18:04;;;;;;;47.50;6.50;;;;;;;21.43;100.00;100296.16;6130326;23;20744;-92
2022/09/13 01:24:30;;;;;;;46.50;6.00;;;;;;;21.45;100.00;100293.94;6158268;23;20388;-91
2022/09/13 01:27:08;;;;;;;42.10;7.00;;;;;;;21.43;100.00;100293.38;6132309;23;20464;-93
2022/09/13 01:30:14;;;;;;;38.53;5.67;;;;;;;21.44;100.00;100292.25;6132317;23;20744;-92
2022/09/13 01:36:23;;;;;;;43.03;5.90;;;;;;;21.38;100.00;100296.97;6158398;23;20459;-92
2022/09/13 01:39:17;;;;;;;45.43;6.93;;;;;;;21.37;100.00;100296.13;6156997;23;20390;-90
2022/09/13 01:42:34;;;;;;;50.53;6.33;;;;;;;21.37;100.00;100298.09;6157168;23;20386;-93
2022/09/13 01:45:39;;;;;;;42.70;5.83;;;;;;;21.34;100.00;100291.16;6156208;23;20441;-93
2022/09/13 01:51:51;;;;;;;45.83;6.17;;;;;;;21.33;100.00;100286.72;6160918;23;20410;-91
2022/09/13 01:54:41;;;;;;;38.10;6.10;;;;;;;21.33;100.00;100295.03;6126617;23;20436;-91
2022/09/13 01:57:30;;;;;;;46.37;7.10;;;;;;;21.34;100.00;100288.38;6157228;23;20444;-93
2022/09/13 02:00:13;;;;;;;44.00;5.93;;;;;;;21.31;100.00;100283.38;6156318;23;20386;-93
2022/09/13 02:06:12;;;;;;;49.20;7.33;;;;;;;21.32;100.00;100286.97;6158275;23;20963;-93
2022/09/13 02:08:45;;;;;;;29.67;5.90;;;;;;;21.37;100.00;100287.81;6108407;23;20908;-92
2022/09/13 02:11:13;;;;;;;33.27;6.13;;;;;;;21.36;100.00;100288.91;6108214;23;20414;-92
2022/09/13 02:14:19;;;;;;;50.17;6.37;;;;;;;21.38;100.00;100281.13;6132389;23;20382;-93
2022/09/13 02:17:17;;;;;;;37.13;5.10;;;;;;;21.31;100.00;100272.25;6156096;23;20434;-92
2022/09/13 02:19:54;;;;;;;34.93;5.50;;;;;;;21.37;100.00;100287.81;6132561;23;20409;-92
2022/09/13 02:22:35;;;;;;;42.77;5.90;;;;;;;21.31;100.00;100276.97;6109372;23;20409;-92
2022/09/13 02:25:20;;;;;;;37.40;5.93;;;;;;;21.33;100.00;100280.31;6134545;23;20406;-93
2022/09/13 02:28:00;;;;;;;41.83;6.67;;;;;;;21.33;100.00;100286.72;6109311;23;20433;-92
2022/09/13 02:30:31;;;;;;;57.93;6.67;;;;;;;21.32;100.00;100284.19;6108859;23;20825;-93
2022/09/13 02:33:38;;;;;;;35.93;5.60;;;;;;;21.37;100.00;100287.81;6108523;23;20414;-95
2022/09/13 02:39:58;;;;;;;36.33;5.60;;;;;;;21.37;100.00;100285.03;6158182;23;20895;-93
2022/09/13 02:42:35;;;;;;;48.83;7.13;;;;;;;21.41;100.00;100292.81;6108829;23;20420;-93
2022/09/13 02:45:25;;;;;;;31.90;5.70;;;;;;;21.42;100.00;100300.03;6156323;23;20411;-92
2022/09/13 02:51:56;;;;;;;47.93;7.40;;;;;;;21.42;100.00;100288.91;6158122;23;20912;-91
2022/09/13 02:54:42;;;;;;;46.70;6.70;;;;;;;21.42;100.00;100291.69;6156019;23;20951;-93
2022/09/13 02:57:37;;;;;;;46.43;6.87;;;;;;;21.41;100.00;100303.94;6110545;23;20457;-93
2022/09/13 03:00:12;;;;;;;48.93;6.07;;;;;;;21.35;100.00;100292.84;6132751;23;20390;-93
2022/09/13 03:02:59;;;;;;;54.97;6.60;;;;;;;21.34;100.00;100291.16;6131720;23;20413;-93
2022/09/13 03:05:36;;;;;;;40.57;5.30;;;;;;;21.32;100.00;100279.47;6131716;23;20413;-94
2022/09/13 03:08:23;;;;;;;41.87;5.47;;;;;;;21.35;100.00;100292.00;6131533;23;20409;-92
2022/09/13 03:10:59;;;;;;;35.13;5.43;;;;;;;21.28;100.00;100278.34;6131541;23;20413;-93
2022/09/13 03:13:54;;;;;;;33.53;5.60;;;;;;;21.40;100.00;100288.34;6107855;23;20417;-92
2022/09/13 03:24:23;;;;;;;38.77;6.40;;;;;;;21.44;100.00;100292.25;6157259;23;20373;-92
2022/09/13 03:27:04;;;;;;;33.47;7.20;;;;;;;21.37;100.00;100287.81;6109965;23;20433;-92
2022/09/13 03:30:06;;;;;;;32.17;5.63;;;;;;;21.43;100.00;100297.00;6109385;23;20416;-94
2022/09/13 03:33:29;;;;;;;36.43;5.90;;;;;;;21.42;100.00;100300.88;6131758;23;20409;-92
2022/09/13 03:36:38;;;;;;;32.73;5.80;;;;;;;21.34;100.00;100284.75;6156124;23;20437;-93
2022/09/13 03:46:37;;;;;;;41.43;6.03;;;;;;;21.41;100.00;100292.81;6066500;23;20412;-92
2022/09/13 03:49:15;;;;;;;29.03;5.00;;;;;;;21.41;100.00;100298.38;6066820;23;20407;-92
2022/09/13 03:51:46;;;;;;;24.90;3.73;;;;;;;21.33;100.00;100280.31;6018587;23;20410;-93
2022/09/13 03:54:32;;;;;;;33.00;5.10;;;;;;;21.35;100.00;100290.06;5996053;23;20412;-93
2022/09/13 03:57:20;;;;;;;34.30;4.67;;;;;;;21.35;100.00;100295.59;5995397;23;20518;-91
2022/09/13 03:59:55;;;;;;;38.17;6.43;;;;;;;21.30;100.00;100290.03;6042546;23;20416;-93
2022/09/13 04:02:25;;;;;;;34.57;5.00;;;;;;;21.25;100.00;100290.00;6018966;23;20478;-92
2022/09/13 04:05:03;;;;;;;27.67;4.73;;;;;;;21.25;100.00;100294.75;6042408;23;20887;-92
2022/09/13 04:07:32;;;;;;;29.47;5.07;;;;;;;21.22;100.00;100295.28;6019005;23;20404;-93
2022/09/13 04:10:17;;;;;;;38.90;4.80;;;;;;;21.20;100.00;100295.56;6018215;23;20485;-91
2022/09/13 04:12:52;;;;;;;29.97;4.73;;;;;;;21.17;100.00;100301.63;6056246;23;20416;-93
2022/09/13 04:15:49;;;;;;;40.37;7.10;;;;;;;21.17;100.00;100307.19;6108038;23;20410;-92
2022/09/13 04:22:11;;;;;;;27.40;4.60;;;;;;;21.12;100.00;100311.94;6157450;23;20369;-92
2022/09/13 04:24:55;;;;;;;28.60;3.90;;;;;;;21.15;100.00;100309.44;6107013;23;20423;-91
2022/09/13 04:27:28;;;;;;;29.23;4.20;;;;;;;21.15;100.00;100305.81;6132663;23;20429;-93
2022/09/13 04:29:56;;;;;;;24.13;4.03;;;;;;;21.15;100.00;100315.00;6107951;23;20401;-93
2022/09/13 04:33:01;;;;;;;25.80;4.90;;;;;;;21.17;100.00;100315.53;6107645;23;20414;-95
2022/09/13 04:35:47;;;;;;;28.00;4.30;;;;;;;21.19;100.00;100306.91;6155065;23;20447;-92
2022/09/13 04:38:26;;;;;;;29.73;4.17;;;;;;;21.16;100.00;100313.88;6156217;23;20414;-95
2022/09/13 04:41:01;;;;;;;26.87;4.30;;;;;;;21.16;100.00;100304.72;6107181;23;20408;-94
2022/09/13 04:47:16;;;;;;;36.57;5.70;;;;;;;21.20;100.00;100312.25;6157065;23;20392;-93
2022/09/13 04:50:00;;;;;;;30.60;5.13;;;;;;;21.23;100.00;100313.63;6107043;23;20492;-92
2022/09/13 04:52:27;;;;;;;33.60;5.50;;;;;;;21.16;100.00;100308.34;6127387;23;20419;-94
2022/09/13 04:54:59;;;;;;;32.47;5.37;;;;;;;21.17;100.00;100315.53;6144821;23;20394;-93
2022/09/13 05:00:46;;;;;;;37.73;5.73;;;;;;;21.16;100.00;100329.72;6160093;23;20385;-93
2022/09/13 05:03:54;;;;;;;38.67;6.10;;;;;;;21.15;100.00;100328.91;6109857;23;20405;-92
2022/09/13 05:06:22;;;;;;;39.60;6.13;;;;;;;21.10;100.00;100325.25;6158731;23;20401;-93
2022/09/13 05:09:05;;;;;;;39.47;6.20;;;;;;;21.12;100.00;100339.72;6110099;23;20500;-95
2022/09/13 05:11:59;;;;;;;47.83;7.17;;;;;;;21.12;100.00;100343.34;6133555;23;20417;-93
2022/09/13 05:14:53;;;;;;;35.00;5.10;;;;;;;21.10;100.00;100337.22;6157925;23;20409;-93
2022/09/13 05:18:10;;;;;;;39.13;6.50;;;;;;;21.09;100.00;100343.88;6158488;23;20443;-93
2022/09/13 05:21:10;;;;;;;46.03;6.57;;;;;;;21.08;100.00;100342.19;6157112;23;20416;-93
2022/09/13 05:23:38;;;;;;;26.63;5.80;;;;;;;21.01;100.00;100331.34;6134214;23;20382;-95
2022/09/13 05:26:06;;;;;;;32.53;4.87;;;;;;;21.03;100.00;100336.63;6107724;23;20452;-93
2022/09/13 05:28:44;;;;;;;39.17;5.83;;;;;;;21.04;100.00;100349.41;6085685;23;20783;-92
2022/09/13 05:34:53;;;;;;;33.83;5.40;;;;;;;21.01;100.00;100345.22;6158714;23;20376;-92
2022/09/13 05:37:21;;;;;;;38.70;6.30;;;;;;;20.95;100.00;100334.38;6085257;23;20449;-94
2022/09/13 05:39:50;;;;;;;31.57;5.50;;;;;;;20.99;100.00;100347.44;6085080;23;20509;-93
2022/09/13 05:42:58;;;;;;;41.20;6.03;;;;;;;21.07;100.00;100354.44;6098516;23;20386;-93
2022/09/13 05:46:04;;;;;;;42.77;6.20;;;;;;;21.10;100.00;100356.66;6110130;23;20419;-92
2022/09/13 05:48:59;;;;;;;41.27;5.70;;;;;;;21.15;100.00;100355.84;6109277;23;20533;-92
2022/09/13 05:52:20;;;;;;;43.60;6.10;;;;;;;21.15;100.00;100361.41;6109492;23;20413;-94
2022/09/13 05:55:02;;;;;;;52.70;7.30;;;;;;;21.16;100.00;100363.91;6132789;23;20504;-94
2022/09/13 05:57:35;;;;;;;36.40;5.67;;;;;;;21.20;100.00;100364.22;6085046;23;20451;-93
2022/09/13 06:00:11;;;;;;;33.33;5.77;;;;;;;21.18;100.00;100360.84;6108497;23;20420;-94
2022/09/13 06:06:13;;;;;;;38.87;4.90;;;;;;;21.19;100.00;100363.34;6158764;23;20373;-92
2022/09/13 06:12:22;;;;;;;45.37;5.50;;;;;;;21.21;100.00;100368.66;6158075;23;20405;-94
2022/09/13 06:14:51;;;;;;;42.60;6.00;;;;;;;21.12;100.00;100348.91;6084343;23;20413;-92
2022/09/13 06:17:22;;;;;;;45.13;5.93;;;;;;;21.22;100.00;100379.50;6084266;23;20456;-92
2022/09/13 06:20:02;;;;;;;34.57;6.20;;;;;;;21.20;100.00;100364.22;6108042;23;20987;-93
2022/09/13 06:26:19;;;;;;;34.33;5.57;;;;;;;21.12;100.00;100370.28;6158201;23;20397;-93
2022/09/13 06:29:17;;;;;;;39.67;6.10;;;;;;;21.15;100.00;100390.03;6084380;23;20748;-93
2022/09/13 06:35:25;;;;;;;29.97;5.20;;;;;;;21.08;100.00;100392.22;6158062;23;20392;-92
2022/09/13 06:37:57;;;;;;;34.23;5.87;;;;;;;21.12;100.00;100389.75;6108214;23;20445;-93
2022/09/13 06:40:33;;;;;;;27.87;5.30;;;;;;;21.17;100.00;100404.47;6083785;23;20468;-93
2022/09/13 06:43:01;;;;;;;37.03;5.77;;;;;;;21.19;100.00;100396.69;6084453;23;20421;-91
2022/09/13 06:45:41;;;;;;;31.47;5.63;;;;;;;21.29;100.00;100401.50;6082932;23;20495;-92
2022/09/13 06:48:17;;;;;;;38.37;6.07;;;;;;;21.28;100.00;100399.84;6132221;23;20405;-93
2022/09/13 06:51:00;;;;;;;39.73;6.00;;;;;;;21.39;100.00;100401.53;6084144;23;20970;-91
2022/09/13 06:53:46;;;;;;;28.43;5.20;;;;;;;21.40;100.00;100396.81;6106225;23;20915;-91
2022/09/13 06:56:21;;;;;;;24.23;5.37;;;;;;;21.37;100.00;100398.19;6107641;23;20464;-93
2022/09/13 06:58:51;;;;;;;35.60;4.90;;;;;;;21.41;100.00;100409.59;6083626;23;20390;-93
2022/09/13 07:01:22;;;;;;;31.93;4.13;;;;;;;21.47;100.00;100419.63;6083804;23;20569;-93
2022/09/13 07:04:01;;;;;;;27.37;4.30;;;;;;;21.53;100.00;100415.78;6131140;23;20448;-94
2022/09/13 07:06:43;;;;;;;31.73;4.63;;;;;;;21.58;100.00;100424.94;6083335;23;20412;-93
2022/09/13 07:09:20;;;;;;;25.83;3.87;;;;;;;21.56;100.00;100424.38;6131967;23;20436;-93
2022/09/13 07:11:50;;;;;;;24.03;3.70;;;;;;;21.63;100.00;100429.69;6108332;23;20465;-93
2022/09/13 07:14:25;;;;;;;26.97;3.47;;;;;;;21.62;100.00;100434.41;6082425;23;20414;-93
2022/09/13 07:16:56;;;;;;;33.77;5.10;;;;;;;21.65;100.00;100439.44;6083145;23;20459;-93
2022/09/13 07:19:30;;;;;;;33.10;4.90;;;;;;;21.65;100.00;100438.59;6106852;23;20445;-93
2022/09/13 07:22:03;;;;;;;27.17;4.80;;;;;;;21.70;100.00;100441.41;6082723;23;20424;-92
2022/09/13 07:24:35;;;;;;;29.40;5.40;;;;;;;21.76;100.00;100445.84;6130893;23;20422;-93
2022/09/13 07:27:03;;;;;;;34.17;5.30;;;;;;;21.82;100.00;100450.31;6112271;23;20441;-91
2022/09/13 07:29:35;;;;;;;27.13;5.10;;;;;;;21.93;100.00;100451.19;6107137;23;20409;-93
2022/09/13 07:32:21;;;;;;;36.03;5.10;;;;;;;22.01;100.00;100443.13;6106639;23;20497;-93
2022/09/13 07:34:56;;;;;;;37.57;4.53;;;;;;;22.06;100.00;100445.09;6131001;23;20413;-93
2022/09/13 07:37:27;;;;;;;30.47;4.33;;;;;;;22.16;100.00;100438.69;6106417;23;20536;-93
2022/09/13 07:40:01;;;;;;;21.70;4.00;;;;;;;22.18;100.00;100442.03;6131114;23;20420;-93
2022/09/13 07:42:39;;;;;;;25.93;5.00;;;;;;;22.23;100.00;100434.50;6106876;23;20495;-93
2022/09/13 07:45:08;;;;;;;32.20;6.27;;;;;;;22.23;100.00;100442.88;6130705;23;20419;-93
2022/09/13 07:48:14;;;;;;;37.80;5.30;;;;;;;22.29;100.00;100454.84;6130725;23;20500;-93
2022/09/13 07:50:42;;;;;;;24.20;3.73;;;;;;;22.35;100.00;100448.97;6167110;23;20537;-92
2022/09/13 07:56:57;;;;;;;40.50;6.23;;;;;;;22.32;100.00;100437.59;6151479;23;20437;-91
2022/09/13 07:59:25;;;;;;;24.57;4.20;;;;;;;22.30;100.00;100442.59;6106184;23;20482;-90
2022/09/13 08:01:56;;;;;;;31.47;5.40;;;;;;;22.43;100.00;100455.97;6108419;23;20430;-89
2022/09/13 08:05:01;;;;;;;28.83;4.13;;;;;;;22.59;100.00;100457.59;6109675;23;20409;-96
2022/09/13 08:07:29;;;;;;;52.03;7.17;;;;;;;22.68;100.00;100469.88;6155126;23;20390;-90
2022/09/13 08:09:58;;;;;;;43.57;5.77;;;;;;;22.72;100.00;100472.91;6108139;23;20711;-93
2022/09/13 08:13:17;;;;;;;53.63;7.13;;;;;;;22.70;100.00;100475.16;6107307;23;20429;-94
2022/09/13 08:15:48;;;;;;;27.40;5.30;;;;;;;22.57;100.00;100461.78;6156468;23;20409;-92
2022/09/13 08:18:18;;;;;;;24.67;4.50;;;;;;;22.45;100.00;100469.59;6131070;23;20433;-90
2022/09/13 08:20:45;;;;;;;22.17;3.77;;;;;;;22.32;100.00;100468.22;6106536;23;20409;-90
2022/09/13 08:23:15;;;;;;;22.27;4.10;;;;;;;22.21;100.00;100469.31;6107626;23;20398;-93
2022/09/13 08:25:45;;;;;;;30.57;4.60;;;;;;;22.10;100.00;100453.72;6106210;23;20398;-91
2022/09/13 08:28:17;;;;;;;34.47;5.43;;;;;;;22.19;100.00;100466.81;6129138;23;20813;-91
2022/09/13 08:30:45;;;;;;;20.13;3.77;;;;;;;22.25;100.00;100467.66;6108583;23;20412;-87
2022/09/13 08:33:13;;;;;;;20.03;4.70;;;;;;;22.33;100.00;100475.44;6131826;23;21112;-86
2022/09/13 08:35:54;;;;;;;28.80;4.70;;;;;;;22.45;100.00;100476.00;6107249;23;20437;-87
2022/09/13 08:38:22;;;;;;;23.97;4.83;;;;;;;22.51;100.00;100474.06;6131995;23;20786;-86
2022/09/13 08:40:54;;;;;;;32.43;4.70;;;;;;;22.60;100.00;100484.34;6156482;23;20400;-86
2022/09/13 08:43:48;;;;;;;36.93;6.00;;;;;;;22.69;100.00;100488.25;6131255;23;20412;-87
2022/09/13 08:46:28;;;;;;;46.00;6.10;;;;;;;22.79;100.00;100490.22;6150817;23;20424;-86
2022/09/13 08:49:04;;;;;;;52.73;6.00;;;;;;;22.88;100.00;100487.69;6156192;23;20790;-91
2022/09/13 08:51:51;;;;;;;37.53;5.53;;;;;;;23.04;100.00;100494.91;6133424;23;20509;-87
2022/09/13 08:54:26;;;;;;;37.23;5.80;;;;;;;23.14;100.00;100503.22;6131365;23;20405;-87
2022/09/13 08:57:12;;;;;;;48.43;5.90;;;;;;;23.23;100.00;100509.91;6157548;23;20413;-86
2022/09/13 09:00:04;;;;;;;39.60;5.30;;;;;;;23.31;100.00;100506.53;6133750;23;20411;-86
2022/09/13 09:03:07;;;;;;;42.73;5.70;;;;;;;23.38;100.00;100507.06;6157430;23;20401;-86
2022/09/13 09:05:55;;;;;;;38.80;6.30;;;;;;;23.50;100.00;100514.25;6152333;23;20464;-87
2022/09/13 09:08:38;;;;;;;38.80;6.03;;;;;;;23.56;100.00;100519.56;6131908;23;20398;-86
2022/09/13 09:11:33;;;;;;;43.20;5.80;;;;;;;23.66;100.00;100522.34;6157888;23;20825;-86
2022/09/13 09:14:24;;;;;;;39.23;5.60;;;;;;;23.76;100.00;100529.81;6155650;23;20789;-86
2022/09/13 09:16:57;;;;;;;28.17;5.57;;;;;;;23.80;100.00;100519.75;6155777;23;20397;-86
2022/09/13 09:19:33;;;;;;;35.90;5.93;;;;;;;23.88;100.00;100533.09;6107816;23;20892;-87
2022/09/13 09:22:03;;;;;;;35.70;5.83;;;;;;;23.95;100.00;100544.78;6155473;23;20500;-87
2022/09/13 09:24:35;;;;;;;33.30;6.10;;;;;;;24.01;100.00;100543.66;6107636;23;20416;-86
2022/09/13 09:27:18;;;;;;;36.60;6.53;;;;;;;24.02;100.00;100539.72;6131292;23;20449;-86
2022/09/13 09:29:49;;;;;;;40.27;6.23;;;;;;;24.02;100.00;100545.31;6131247;23;20414;-86
2022/09/13 11:51:05;;;;;;;23.97;4.40;;;;;;;28.79;81.07;100570.94;6154588;23;20420;-87
2022/09/13 11:53:58;;;;;;;27.43;5.00;;;;;;;28.96;80.03;100570.25;6156329;23;20409;-87
2022/09/13 13:51:21;;;;;;;20.63;3.30;;;;;;;31.01;67.18;100523.16;6153865;23;20420;-87
2022/09/13 13:53:51;;;;;;;24.17;3.33;;;;;;;31.08;67.82;100539.59;6108615;23;20407;-87
2022/09/13 13:56:41;;;;;;;22.93;4.40;;;;;;;31.16;66.85;100544.44;6084137;23;20401;-86
2022/09/13 13:59:26;;;;;;;25.60;4.37;;;;;;;31.15;66.16;100537.13;6097024;23;20826;-86
2022/09/13 14:01:58;;;;;;;18.17;3.20;;;;;;;31.10;66.23;100534.44;6107965;23;20463;-87
2022/09/13 14:04:31;;;;;;;25.53;3.90;;;;;;;31.14;65.58;100549.56;6084627;23;20397;-86
2022/09/13 14:07:08;;;;;;;23.47;4.10;;;;;;;30.96;65.57;100548.75;6156866;23;20408;-86
2022/09/13 14:09:55;;;;;;;20.63;4.00;;;;;;;30.77;65.53;100534.19;6111235;23;20405;-86
2022/09/13 14:13:01;;;;;;;20.93;3.70;;;;;;;30.66;66.92;100525.22;6131118;23;20404;-86
2022/09/13 15:05:08;;;;;;;21.23;3.80;;;;;;;28.72;71.59;100526.38;6126816;23;20897;-87
2022/09/13 15:07:36;;;;;;;19.63;3.80;;;;;;;28.66;71.63;100532.47;6078538;23;20409;-86
2022/09/13 15:10:11;;;;;;;17.37;3.50;;;;;;;28.65;72.17;100531.63;6078017;23;20437;-86
2022/09/13 15:12:57;;;;;;;25.13;3.70;;;;;;;28.73;71.52;100533.66;6102642;23;20488;-86
2022/09/13 15:15:32;;;;;;;19.70;3.40;;;;;;;28.64;71.63;100540.38;6100634;23;20410;-86
2022/09/13 15:18:18;;;;;;;17.40;4.10;;;;;;;28.47;72.98;100546.72;6100632;23;20433;-86
2022/09/13 15:21:05;;;;;;;17.00;2.80;;;;;;;28.33;72.95;100534.66;6079672;23;20404;-86
2022/09/13 18:29:17;;;;;;;26.77;3.67;;;;;;;24.65;84.91;100637.69;6151439;23;20407;-86
2022/09/13 18:31:46;;;;;;;23.63;4.00;;;;;;;24.48;86.16;100626.06;6125189;23;20960;-86
2022/09/13 18:34:14;;;;;;;23.20;3.80;;;;;;;24.44;86.23;100625.81;6100877;23;20437;-87
2022/09/13 18:36:42;;;;;;;35.13;4.67;;;;;;;24.45;86.68;100643.41;6100084;23;20437;-89
2022/09/13 18:39:20;;;;;;;30.40;5.50;;;;;;;24.41;87.47;100647.91;6054429;23;20477;-89
2022/09/13 18:45:41;;;;;;;25.30;4.83;;;;;;;24.27;88.78;100660.81;6127774;23;20897;-91
2022/09/13 18:48:43;;;;;;;24.17;4.03;;;;;;;24.20;89.48;100647.16;6056384;23;20865;-90
2022/09/13 19:32:52;;;;;;;23.90;4.70;;;;;;;23.30;94.71;100655.47;6156506;23;20408;-90
2022/09/13 19:35:43;;;;;;;28.80;4.70;;;;;;;23.38;95.21;100674.44;6107759;23;20417;-91
2022/09/13 19:38:15;;;;;;;33.60;7.17;;;;;;;23.28;95.14;100674.47;6106741;23;20445;-91
2022/09/13 19:41:30;;;;;;;27.73;6.30;;;;;;;23.21;95.95;100676.69;6085657;23;20413;-91
2022/09/13 19:44:05;;;;;;;24.13;4.53;;;;;;;23.16;96.00;100675.84;5993360;23;20421;-90
2022/09/13 19:46:47;;;;;;;38.33;5.60;;;;;;;23.13;96.09;100676.38;5967559;23;20423;-89
2022/09/13 19:49:54;;;;;;;30.17;5.47;;;;;;;23.15;96.44;100688.09;6002334;23;20412;-92
2022/09/13 19:53:12;;;;;;;35.80;6.63;;;;;;;23.19;96.78;100700.38;5992621;23;20416;-89
2022/09/13 23:17:20;;;;;;;19.53;5.17;;;;;;;20.74;100.00;100721.50;6156743;23;20494;-90
2022/09/13 23:23:18;;;;;;;24.03;4.67;;;;;;;20.83;100.00;100740.22;6157720;23;20730;-95
2022/09/13 23:26:16;;;;;;;18.50;4.03;;;;;;;20.79;100.00;100746.53;6108601;23;20421;-94
2022/09/13 23:32:50;;;;;;;27.27;4.47;;;;;;;20.69;100.00;100737.03;6156729;23;20409;-95
2022/09/13 23:43:30;;;;;;;16.53;3.53;;;;;;;20.66;100.00;100731.97;6157301;23;20374;-95
2022/09/13 23:46:09;;;;;;;17.67;3.90;;;;;;;20.57;100.00;100733.56;6106818;23;20468;-95
2022/09/13 23:49:14;;;;;;;25.10;4.20;;;;;;;20.53;100.00;100735.16;6082734;23;20445;-94
2022/09/13 23:52:10;;;;;;;18.10;3.73;;;;;;;20.49;100.00;100742.34;6130766;23;20440;-95
2022/09/13 23:54:39;;;;;;;17.77;3.70;;;;;;;20.47;100.00;100738.13;6106947;23;20447;-94
2022/09/13 23:57:19;;;;;;;17.43;5.23;;;;;;;20.45;100.00;100730.06;6083138;23;20413;-94
